createdAt,value
2019-04-28T00:02:40.842Z,10.00
2019-04-28T00:05:48.341Z,10.10
2019-04-28T00:08:55.846Z,10.00
2019-04-28T00:12:04.136Z,10.00
2019-04-28T00:15:12.363Z,10.00
2019-04-28T00:18:21.969Z,10.00
2019-04-28T00:21:48.516Z,10.10
2019-04-28T00:25:14.406Z,10.10
2019-04-28T00:28:21.958Z,10.00
2019-04-28T00:31:31.140Z,10.10
2019-04-28T00:34:38.775Z,10.10
2019-04-28T00:37:46.436Z,10.10
2019-04-28T00:40:54.046Z,10.10
2019-04-28T00:44:02.069Z,10.10
2019-04-28T00:47:11.080Z,10.10
2019-04-28T00:50:18.849Z,10.10
2019-04-28T00:53:26.641Z,10.10
2019-04-28T00:56:34.197Z,10.10
2019-04-28T00:59:54.155Z,10.10
2019-04-28T01:02:51.181Z,10.10
2019-04-28T01:05:58.704Z,10.10
2019-04-28T01:09:08.524Z,10.10
2019-04-28T01:12:17.643Z,10.10
2019-04-28T01:15:35.679Z,10.10
2019-04-28T01:19:10.052Z,10.20
2019-04-28T01:22:20.156Z,10.20
2019-04-28T01:25:29.872Z,10.20
2019-04-28T01:28:39.821Z,10.20
2019-04-28T01:31:56.912Z,10.20
2019-04-28T01:35:04.528Z,10.20
2019-04-28T01:38:12.304Z,10.20
2019-04-28T01:41:20.174Z,10.20
2019-04-28T01:44:30.048Z,10.20
2019-04-28T01:47:37.485Z,10.20
2019-04-28T01:50:45.043Z,10.20
2019-04-28T01:53:52.594Z,10.10
2019-04-28T01:57:01.414Z,10.10
2019-04-28T02:00:21.887Z,10.10
2019-04-28T02:03:22.193Z,10.10
2019-04-28T02:06:30.065Z,10.10
2019-04-28T02:09:39.581Z,10.10
2019-04-28T02:12:50.359Z,10.10
2019-04-28T02:16:00.094Z,10.10
2019-04-28T02:19:07.520Z,10.00
2019-04-28T02:22:40.010Z,10.00
2019-04-28T02:25:47.576Z,9.90
2019-04-28T02:28:55.212Z,9.90
2019-04-28T02:32:03.420Z,9.90
2019-04-28T02:35:11.019Z,9.90
2019-04-28T02:38:20.836Z,9.80
2019-04-28T02:41:27.698Z,9.80
2019-04-28T02:44:35.387Z,9.70
2019-04-28T02:47:43.087Z,9.70
2019-04-28T02:50:56.793Z,9.80
2019-04-28T02:54:04.342Z,9.70
2019-04-28T02:57:11.863Z,9.70
2019-04-28T03:00:21.612Z,9.60
2019-04-28T03:03:30.825Z,9.60
2019-04-28T03:06:40.545Z,9.60
2019-04-28T03:09:47.135Z,9.50
2019-04-28T03:12:55.560Z,9.50
2019-04-28T03:16:03.276Z,9.50
2019-04-28T03:19:10.994Z,9.50
2019-04-28T03:22:20.436Z,9.50
2019-04-28T03:25:40.727Z,9.40
2019-04-28T03:28:53.204Z,9.40
2019-04-28T03:32:28.536Z,9.40
2019-04-28T03:35:15.521Z,9.40
2019-04-28T03:38:23.058Z,9.40
2019-04-28T03:41:31.203Z,9.30
2019-04-28T03:44:41.429Z,9.30
2019-04-28T03:47:50.909Z,9.30
2019-04-28T03:51:00.365Z,9.30
2019-04-28T03:54:10.282Z,9.30
2019-04-28T03:57:21.517Z,9.30
2019-04-28T04:00:31.344Z,9.30
2019-04-28T04:03:41.492Z,9.30
2019-04-28T04:06:47.968Z,9.30
2019-04-28T04:10:17.046Z,9.30
2019-04-28T04:13:33.010Z,9.30
2019-04-28T04:17:02.320Z,9.30
2019-04-28T04:20:11.079Z,9.30
2019-04-28T04:23:22.742Z,9.30
2019-04-28T04:26:27.760Z,9.40
2019-04-28T04:29:35.280Z,9.40
2019-04-28T04:32:44.993Z,9.40
2019-04-28T04:35:52.577Z,9.40
2019-04-28T04:39:01.812Z,9.40
2019-04-28T04:42:10.698Z,9.40
2019-04-28T04:45:20.251Z,9.30
2019-04-28T04:48:27.472Z,9.30
2019-04-28T04:51:35.103Z,9.30
2019-04-28T04:54:42.671Z,9.40
2019-04-28T04:57:50.774Z,9.40
2019-04-28T05:01:10.594Z,9.40
2019-04-28T05:04:36.960Z,9.30
2019-04-28T05:07:44.480Z,9.30
2019-04-28T05:10:51.978Z,9.30
2019-04-28T05:13:59.749Z,9.30
2019-04-28T05:17:08.016Z,9.30
2019-04-28T05:20:15.818Z,9.30
2019-04-28T05:23:43.268Z,9.40
2019-04-28T05:26:51.594Z,9.30
2019-04-28T05:30:03.787Z,9.30
2019-04-28T05:33:10.397Z,9.40
2019-04-28T05:36:17.862Z,9.40
2019-04-28T05:39:25.360Z,9.40
2019-04-28T05:42:33.993Z,9.50
2019-04-28T05:45:42.779Z,9.60
2019-04-28T05:49:22.680Z,9.70
2019-04-28T05:53:02.539Z,9.80
2019-04-28T05:56:20.348Z,9.90
2019-04-28T06:00:03.650Z,9.90
2019-04-28T06:03:13.238Z,10.00
2019-04-28T06:06:22.293Z,10.00
2019-04-28T06:09:36.179Z,10.00
2019-04-28T06:12:43.742Z,10.00
2019-04-28T06:15:52.611Z,10.10
2019-04-28T06:19:00.326Z,10.00
2019-04-28T06:22:08.117Z,10.00
2019-04-28T06:25:15.749Z,10.00
2019-04-28T06:28:24.414Z,9.80
2019-04-28T06:31:31.972Z,9.80
2019-04-28T06:34:39.701Z,9.80
2019-04-28T06:37:47.381Z,9.80
2019-04-28T06:40:54.930Z,9.80
2019-04-28T06:44:02.520Z,9.70
2019-04-28T06:47:10.077Z,9.70
2019-04-28T06:50:17.762Z,9.70
2019-04-28T06:53:26.958Z,9.70
2019-04-28T06:56:34.708Z,9.70
2019-04-28T06:59:43.459Z,9.80
2019-04-28T07:02:51.034Z,9.70
2019-04-28T07:05:58.604Z,9.80
2019-04-28T07:09:09.062Z,9.80
2019-04-28T07:12:16.589Z,9.90
2019-04-28T07:15:24.321Z,9.90
2019-04-28T07:18:32.392Z,10.00
2019-04-28T07:21:49.352Z,10.00
2019-04-28T07:24:57.129Z,10.00
2019-04-28T07:28:05.010Z,10.00
2019-04-28T07:31:12.959Z,10.00
2019-04-28T07:34:20.525Z,10.00
2019-04-28T07:37:28.058Z,10.00
2019-04-28T07:40:35.654Z,10.00
2019-04-28T07:43:43.222Z,10.00
2019-04-28T07:46:50.796Z,9.90
2019-04-28T07:49:58.322Z,9.90
2019-04-28T07:53:17.202Z,9.80
2019-04-28T07:56:24.958Z,9.70
2019-04-28T07:59:32.576Z,9.70
2019-04-28T08:02:40.116Z,9.70
2019-04-28T08:05:47.693Z,9.70
2019-04-28T08:08:55.160Z,9.70
2019-04-28T08:12:03.314Z,9.80
2019-04-28T08:15:11.968Z,9.70
2019-04-28T08:18:19.596Z,9.70
2019-04-28T08:21:27.245Z,9.80
2019-04-28T08:24:34.743Z,9.90
2019-04-28T08:27:42.350Z,10.00
2019-04-28T08:30:49.852Z,10.10
2019-04-28T08:34:03.225Z,10.10
2019-04-28T08:37:10.764Z,10.20
2019-04-28T08:40:18.334Z,10.30
2019-04-28T08:43:25.876Z,10.50
2019-04-28T08:46:33.430Z,10.60
2019-04-28T08:49:40.966Z,10.70
2019-04-28T08:52:49.829Z,10.70
2019-04-28T08:55:57.376Z,10.70
2019-04-28T08:59:05.312Z,10.60
2019-04-28T09:02:12.962Z,10.70
2019-04-28T09:05:20.592Z,10.60
2019-04-28T09:08:28.340Z,10.60
2019-04-28T09:11:35.791Z,10.50
2019-04-28T09:14:43.490Z,10.50
2019-04-28T09:17:51.241Z,10.60
2019-04-28T09:20:59.864Z,10.80
2019-04-28T09:24:07.380Z,10.90
2019-04-28T09:27:18.657Z,10.80
2019-04-28T09:30:27.499Z,10.70
2019-04-28T09:33:35.147Z,10.60
2019-04-28T09:36:42.768Z,10.70
2019-04-28T09:40:12.198Z,10.70
2019-04-28T09:43:44.525Z,10.90
2019-04-28T09:46:52.189Z,11.00
2019-04-28T09:49:59.780Z,11.20
2019-04-28T09:53:08.364Z,11.10
2019-04-28T09:56:15.921Z,10.90
2019-04-28T09:59:23.515Z,11.00
2019-04-28T10:02:30.940Z,10.90
2019-04-28T10:05:38.560Z,11.00
2019-04-28T10:08:46.238Z,11.00
2019-04-28T10:11:54.015Z,10.90
2019-04-28T10:15:01.639Z,10.90
2019-04-28T10:18:09.174Z,10.90
2019-04-28T10:21:16.708Z,10.90
2019-04-28T10:24:24.561Z,11.10
2019-04-28T10:27:32.127Z,11.20
2019-04-28T10:30:39.765Z,11.20
2019-04-28T10:33:50.958Z,11.20
2019-04-28T10:36:58.597Z,11.10
2019-04-28T10:40:16.523Z,11.00
2019-04-28T10:43:24.220Z,11.00
2019-04-28T10:46:32.186Z,11.00
2019-04-28T10:49:39.775Z,11.20
2019-04-28T10:52:48.972Z,11.20
2019-04-28T10:55:56.721Z,11.50
2019-04-28T10:59:05.982Z,11.40
2019-04-28T11:02:13.479Z,11.50
2019-04-28T11:05:28.234Z,11.70
2019-04-28T11:08:43.752Z,11.80
2019-04-28T11:11:51.338Z,11.90
2019-04-28T11:15:00.733Z,11.90
2019-04-28T11:18:10.561Z,11.70
2019-04-28T11:21:19.696Z,11.60
2019-04-28T11:24:27.338Z,11.40
2019-04-28T11:27:35.697Z,11.30
2019-04-28T11:30:43.981Z,11.20
2019-04-28T11:34:11.825Z,11.30
2019-04-28T11:37:19.625Z,11.10
2019-04-28T11:40:27.339Z,11.20
2019-04-28T11:43:36.891Z,11.10
2019-04-28T11:46:45.522Z,11.20
2019-04-28T11:49:53.043Z,11.30
2019-04-28T11:53:00.531Z,11.40
2019-04-28T11:56:08.063Z,11.30
2019-04-28T11:59:16.369Z,11.30
2019-04-28T12:02:24.359Z,11.30
2019-04-28T12:05:48.261Z,11.40
2019-04-28T12:08:58.902Z,11.30
2019-04-28T12:12:12.880Z,11.40
2019-04-28T12:15:41.523Z,11.40
2019-04-28T12:18:57.653Z,11.30
2019-04-28T12:22:05.818Z,11.20
2019-04-28T12:25:15.099Z,11.40
2019-04-28T12:28:23.614Z,11.70
2019-04-28T12:31:31.599Z,11.80
2019-04-28T12:34:39.294Z,12.00
2019-04-28T12:37:48.413Z,12.00
2019-04-28T12:40:56.101Z,12.00
2019-04-28T12:44:04.274Z,12.10
2019-04-28T12:47:11.874Z,12.20
2019-04-28T12:50:27.586Z,12.30
2019-04-28T12:53:35.533Z,12.30
2019-04-28T12:56:45.680Z,12.10
2019-04-28T13:00:09.321Z,12.10
2019-04-28T13:03:36.089Z,12.00
2019-04-28T13:06:59.074Z,11.70
2019-04-28T13:10:07.321Z,11.50
2019-04-28T13:13:14.915Z,11.30
2019-04-28T13:16:24.145Z,11.30
2019-04-28T13:19:31.810Z,11.20
2019-04-28T13:22:41.076Z,11.30
2019-04-28T13:25:48.740Z,11.20
2019-04-28T13:28:57.779Z,11.10
2019-04-28T13:32:05.405Z,11.00
2019-04-28T13:35:14.607Z,11.00
2019-04-28T13:38:22.280Z,11.00
2019-04-28T13:41:31.049Z,10.90
2019-04-28T13:44:55.954Z,10.90
2019-04-28T13:48:03.551Z,10.90
2019-04-28T13:51:11.202Z,10.90
2019-04-28T13:54:20.489Z,10.90
2019-04-28T13:57:30.601Z,10.80
2019-04-28T14:01:09.701Z,10.80
2019-04-28T14:04:29.911Z,10.90
2019-04-28T14:07:38.737Z,10.90
2019-04-28T14:10:46.406Z,10.90
2019-04-28T14:13:54.237Z,10.90
2019-04-28T14:17:01.811Z,10.90
2019-04-28T14:20:10.505Z,10.90
2019-04-28T14:23:19.699Z,10.90
2019-04-28T14:26:28.015Z,10.90
2019-04-28T14:29:35.559Z,10.80
2019-04-28T14:32:43.139Z,10.70
2019-04-28T14:35:50.710Z,10.60
2019-04-28T14:38:58.331Z,10.60
2019-04-28T14:42:05.967Z,10.50
2019-04-28T14:45:14.039Z,10.60
2019-04-28T14:48:21.653Z,10.40
2019-04-28T14:51:29.248Z,10.30
2019-04-28T14:54:38.479Z,10.20
2019-04-28T14:57:46.031Z,10.20
2019-04-28T15:00:59.325Z,10.10
2019-04-28T15:04:12.328Z,9.90
2019-04-28T15:07:38.905Z,9.90
2019-04-28T15:11:09.345Z,9.90
2019-04-28T15:14:16.940Z,9.80
2019-04-28T15:17:25.273Z,9.70
2019-04-28T15:20:34.324Z,9.70
2019-04-28T15:23:43.961Z,9.60
2019-04-28T15:26:51.539Z,9.60
2019-04-28T15:29:59.058Z,9.50
2019-04-28T15:33:07.147Z,9.50
2019-04-28T15:36:14.744Z,9.40
2019-04-28T15:39:22.443Z,9.40
2019-04-28T15:42:30.575Z,9.40
2019-04-28T15:45:38.206Z,9.40
2019-04-28T15:48:47.250Z,9.40
2019-04-28T15:51:54.812Z,9.40
2019-04-28T15:55:03.604Z,9.30
2019-04-28T15:58:31.627Z,9.30
2019-04-28T16:01:39.139Z,9.30
2019-04-28T16:04:47.218Z,9.20
2019-04-28T16:07:57.519Z,9.20
2019-04-28T16:11:05.387Z,9.10
2019-04-28T16:14:12.863Z,9.10
2019-04-28T16:17:20.382Z,9.00
2019-04-28T16:20:29.736Z,9.10
2019-04-28T16:23:38.671Z,9.00
2019-04-28T16:26:46.409Z,9.00
2019-04-28T16:29:54.963Z,9.00
2019-04-28T16:33:02.583Z,9.00
2019-04-28T16:36:11.996Z,9.00
2019-04-28T16:39:19.547Z,8.90
2019-04-28T16:42:30.874Z,8.90
2019-04-28T16:45:38.483Z,8.90
2019-04-28T16:48:46.088Z,8.90
2019-04-28T16:51:53.735Z,8.90
2019-04-28T16:55:38.399Z,8.90
2019-04-28T16:59:16.029Z,8.90
2019-04-28T17:02:40.501Z,8.90
2019-04-28T17:05:48.116Z,8.90
2019-04-28T17:08:55.738Z,8.90
2019-04-28T17:12:03.270Z,8.90
2019-04-28T17:15:10.995Z,8.90
2019-04-28T17:18:18.763Z,8.90
2019-04-28T17:21:27.065Z,8.90
2019-04-28T17:24:34.653Z,8.90
2019-04-28T17:27:42.393Z,8.90
2019-04-28T17:30:50.169Z,8.90
2019-04-28T17:33:58.310Z,8.90
2019-04-28T17:37:07.729Z,8.90
2019-04-28T17:40:16.479Z,8.90
2019-04-28T17:43:24.003Z,8.80
2019-04-28T17:46:31.921Z,8.80
2019-04-28T17:49:41.197Z,8.70
2019-04-28T17:52:50.309Z,8.70
2019-04-28T17:55:57.753Z,8.60
2019-04-28T17:59:05.513Z,8.60
2019-04-28T18:02:31.985Z,8.60
2019-04-28T18:05:46.826Z,8.60
2019-04-28T18:08:54.439Z,8.60
2019-04-28T18:12:01.950Z,8.60
2019-04-28T18:15:31.825Z,8.60
2019-04-28T18:18:53.121Z,8.50
2019-04-28T18:22:01.048Z,8.50
2019-04-28T18:25:09.875Z,8.50
2019-04-28T18:28:18.780Z,8.40
2019-04-28T18:31:40.014Z,8.40
2019-04-28T18:34:59.544Z,8.40
2019-04-28T18:38:13.873Z,8.50
2019-04-28T18:41:58.712Z,8.40
2019-04-28T18:45:07.236Z,8.40
2019-04-28T18:48:15.251Z,8.40
2019-04-28T18:51:22.810Z,8.30
2019-04-28T18:54:30.463Z,8.30
2019-04-28T18:57:38.655Z,8.40
2019-04-28T19:00:52.711Z,8.30
2019-04-28T19:04:00.305Z,8.30
2019-04-28T19:07:09.409Z,8.30
2019-04-28T19:10:25.140Z,8.30
2019-04-28T19:13:34.846Z,8.20
2019-04-28T19:17:03.790Z,8.30
2019-04-28T19:20:13.706Z,8.20
2019-04-28T19:23:20.973Z,8.20
2019-04-28T19:26:28.538Z,8.20
2019-04-28T19:29:36.121Z,8.20
2019-04-28T19:32:43.675Z,8.20
2019-04-28T19:35:52.617Z,8.20
2019-04-28T19:39:03.339Z,8.20
2019-04-28T19:42:10.974Z,8.20
2019-04-28T19:45:21.034Z,8.20
2019-04-28T19:48:30.030Z,8.20
2019-04-28T19:51:38.038Z,8.20
2019-04-28T19:55:08.452Z,8.10
2019-04-28T19:58:33.469Z,8.10
2019-04-28T20:01:42.314Z,8.10
2019-04-28T20:04:50.303Z,8.10
2019-04-28T20:07:58.069Z,8.10
2019-04-28T20:11:05.675Z,8.10
2019-04-28T20:14:13.340Z,8.10
2019-04-28T20:17:21.083Z,8.10
2019-04-28T20:20:29.552Z,8.10
2019-04-28T20:23:37.073Z,8.10
2019-04-28T20:26:44.649Z,8.10
2019-04-28T20:29:52.471Z,8.10
2019-04-28T20:33:07.033Z,8.10
2019-04-28T20:36:15.595Z,8.10
2019-04-28T20:39:31.233Z,8.10
2019-04-28T20:42:53.232Z,8.10
2019-04-28T20:46:00.806Z,8.10
2019-04-28T20:49:10.233Z,8.10
2019-04-28T20:52:18.501Z,8.10
2019-04-28T20:55:26.013Z,8.10
2019-04-28T20:58:34.862Z,8.10
2019-04-28T21:01:42.452Z,8.10
2019-04-28T21:04:50.116Z,8.10
2019-04-28T21:07:57.742Z,8.10
2019-04-28T21:11:06.854Z,8.10
2019-04-28T21:14:14.463Z,8.10
2019-04-28T21:17:22.004Z,8.10
2019-04-28T21:20:30.904Z,8.10
2019-04-28T21:23:38.433Z,8.10
2019-04-28T21:26:45.988Z,8.10
2019-04-28T21:29:54.176Z,8.10
2019-04-28T21:33:01.707Z,8.10
2019-04-28T21:36:09.278Z,8.10
2019-04-28T21:39:16.772Z,8.20
2019-04-28T21:42:26.828Z,8.20
2019-04-28T21:45:52.031Z,8.20
2019-04-28T21:49:18.650Z,8.20
2019-04-28T21:52:26.334Z,8.20
2019-04-28T21:55:35.045Z,8.20
2019-04-28T21:58:42.655Z,8.20
2019-04-28T22:01:50.497Z,8.20
2019-04-28T22:04:58.190Z,8.20
2019-04-28T22:08:06.226Z,8.20
2019-04-28T22:11:14.510Z,8.20
2019-04-28T22:14:22.643Z,8.20
2019-04-28T22:17:30.315Z,8.20
2019-04-28T22:20:37.817Z,8.20
2019-04-28T22:24:16.274Z,8.20
2019-04-28T22:27:28.767Z,8.20
2019-04-28T22:30:36.227Z,8.20
2019-04-28T22:33:43.876Z,8.20
2019-04-28T22:36:51.577Z,8.20
2019-04-28T22:39:59.127Z,8.20
2019-04-28T22:43:06.968Z,8.20
2019-04-28T22:46:14.426Z,8.20
2019-04-28T22:49:23.312Z,8.20
2019-04-28T22:52:30.848Z,8.20
2019-04-28T22:55:52.841Z,8.20
2019-04-28T22:59:05.000Z,8.20
2019-04-28T23:02:15.547Z,8.20
2019-04-28T23:05:23.072Z,8.20
2019-04-28T23:08:31.701Z,8.20
2019-04-28T23:11:39.261Z,8.30
2019-04-28T23:14:46.717Z,8.20
2019-04-28T23:17:54.330Z,8.30
2019-04-28T23:21:05.406Z,8.20
2019-04-28T23:24:12.864Z,8.30
2019-04-28T23:27:20.335Z,8.20
2019-04-28T23:30:45.408Z,8.20
2019-04-28T23:33:54.205Z,8.30
2019-04-28T23:37:01.672Z,8.20
2019-04-28T23:40:09.131Z,8.30
2019-04-28T23:43:20.123Z,8.30
2019-04-28T23:46:46.428Z,8.30
2019-04-28T23:49:53.995Z,8.30
2019-04-28T23:53:11.048Z,8.30
2019-04-28T23:56:18.507Z,8.20
2019-04-28T23:59:26.139Z,8.30
